Sloman Herakles — V2FY4 — position and weather

sailwx.info

Track history (hours):
 
Tides and Currents Weather Stations Pressure Air Temp Water Temp Dewpoint Dewpoint Depression Visibility Wind Speed Wind Dir Waves Ship Positions

Sloman Herakles

Last reported at 2015-May-24 04:33 UTC. Time now 2015-May-24 04:52 UTC.
Position N 55°16' E 012°46'.

Length 145 m; draft 6.7 m.

Type: Ship (hazmat cat C). MMSI: 305851000.

Date/timePositionNaut miles runAvg speedWind from/ knotsBaromVisibWave heightAir tempDewpointWater temp
2015-May-24 04:33N 55°16' E 012°46'1010.3
2015-May-24 03:33N 55°26' E 012°40'1010.3
2015-May-24 02:33N 55°34' E 012°49'8 8.4
2015-May-24 01:34N 55°42' E 012°53'1313.1
2015-May-24 00:34N 55°53' E 012°40'1110.5
2015-May-23 23:34N 56°04' E 012°37'1312.5
2015-May-23 22:33N 56°11' E 012°20'1312.5
2015-May-23 21:32N 56°20' E 012°02'1313.2
2015-May-23 20:33N 56°32' E 011°57'1313.0
2015-May-23 19:33N 56°45' E 011°52'1312.9
2015-May-23 18:33N 56°57' E 011°44'1312.8
2015-May-23 17:33N 57°09' E 011°36'1313.0
2015-May-23 16:33N 57°21' E 011°28'1212.3
2015-May-23 15:34N 57°32' E 011°16'1312.9
2015-May-23 14:33N 57°40' E 010°58'1212.3
2015-May-23 13:33N 57°48' E 010°39'1413.5
2015-May-23 12:33N 57°45' E 010°15'1313.3
2015-May-23 11:33N 57°40' E 009°51'25911.7
2015-May-22 13:29N 54°17' E 005°03'1212.6
2015-May-22 12:32N 54°06' E 004°56'1212.4
2015-May-22 11:33N 53°54' E 004°53'1412.7
2015-May-22 10:29N 53°40' E 004°52'1414.4
2015-May-22 09:32N 53°27' E 004°44'1414.7
2015-May-22 08:33N 53°14' E 004°34'1515.1
2015-May-22 07:33N 53°01' E 004°22'1515.3
2015-May-22 06:34N 52°47' E 004°10'1514.9
2015-May-22 05:33N 52°35' E 003°56'1615.4
2015-May-22 04:32N 52°20' E 003°51'1414.5
2015-May-22 03:33N 52°06' E 003°55'8 8.0
2015-May-22 02:33N 51°59' E 004°03'1111.3
2015-May-22 01:33N 51°53' E 004°19'0 0.3
2015-May-22 00:24N 51°53' E 004°18'0 0.0
2015-May-21 23:15N 51°53' E 004°18'0 0.0
2015-May-21 22:30N 51°53' E 004°18'0 0.0
2015-May-21 20:33N 51°53' E 004°18'0 0.0
2015-May-21 19:30N 51°53' E 004°18'0 0.0
2015-May-21 18:30N 51°53' E 004°18'0 0.0
2015-May-21 17:33N 51°53' E 004°18'0 0.0
2015-May-21 16:30N 51°53' E 004°18'0 0.0
2015-May-21 15:33N 51°53' E 004°18'0 0.0
2015-May-21 14:21N 51°53' E 004°18'0 0.0
2015-May-21 13:21N 51°53' E 004°18'0 0.0
2015-May-21 12:33N 51°53' E 004°18'0 0.0
2015-May-21 11:30N 51°53' E 004°18'0 0.0
2015-May-21 10:33N 51°53' E 004°18'0 0.0
2015-May-21 09:18N 51°53' E 004°18'0 0.0
2015-May-21 08:24N 51°53' E 004°18'0 0.0
2015-May-21 07:30N 51°53' E 004°18'0 0.0
2015-May-21 06:33N 51°53' E 004°18'0 0.0
2015-May-21 05:33N 51°53' E 004°18'5 5.3
2015-May-21 04:33N 51°56' E 004°12'1010.1
2015-May-21 03:33N 51°60' E 003°56'6 6.1
2015-May-21 02:33N 51°59' E 003°47'9 7.6
2015-May-21 01:23N 51°57' E 003°33'910.2
2015-May-21 00:31N 51°55' E 003°19'90 8.8
2015-May-20 14:17N 53°07' E 001°51'810.2
2015-May-20 13:33N 53°11' E 001°40'4410.0
2015-May-20 09:11N 53°34' E 000°38'712.0
2015-May-20 08:33N 53°32' E 000°25'1110.4
2015-May-20 07:33N 53°33' E 000°08'9 9.3
2015-May-20 06:33N 53°37' W 000°07'3 2.8
2015-May-20 05:28N 53°38' W 000°11'0 0.0
2015-May-20 04:31N 53°38' W 000°11'0 0.0
2015-May-20 03:25N 53°38' W 000°11'0 0.0
2015-May-20 02:28N 53°38' W 000°11'0 0.0
2015-May-20 01:31N 53°38' W 000°11'0 0.0
2015-May-20 00:31N 53°38' W 000°11'0 0.0
2015-May-19 23:31N 53°38' W 000°11'0 0.0
2015-May-19 22:28N 53°38' W 000°11'0 0.0
2015-May-19 21:31N 53°38' W 000°11'0 0.0
2015-May-19 20:31N 53°38' W 000°11'0 0.0
2015-May-19 19:28N 53°38' W 000°11'0 0.0
2015-May-19 18:31N 53°38' W 000°11'0 0.0
2015-May-19 17:31N 53°38' W 000°11'0 0.0
2015-May-19 16:25N 53°38' W 000°11'0 0.0
2015-May-19 15:31N 53°38' W 000°11'0 0.0
2015-May-19 14:31N 53°38' W 000°11'0 0.0
2015-May-19 13:31N 53°38' W 000°11'0 0.0
2015-May-19 12:31N 53°38' W 000°11'0 0.0
2015-May-19 11:31N 53°38' W 000°11'0 0.0
2015-May-19 10:31N 53°38' W 000°11'0 0.0
2015-May-19 09:28N 53°38' W 000°11'0 0.0
2015-May-19 08:31N 53°38' W 000°11'0 0.0
2015-May-19 07:31N 53°38' W 000°11'0 0.0
2015-May-19 06:33N 53°38' W 000°11'2 2.3
2015-May-19 05:33N 53°38' W 000°08'6 6.4
2015-May-19 04:33N 53°35' E 000°02'10 9.7
2015-May-19 03:33N 53°33' E 000°18'4 4.3
2015-May-19 02:33N 53°36' E 000°24'1 0.6
2015-May-19 01:27N 53°36' E 000°25'0 0.1
2015-May-19 00:33N 53°36' E 000°24'0 0.0
2015-May-18 23:18N 53°36' E 000°24'0 0.0
2015-May-18 22:33N 53°36' E 000°24'0 0.0
2015-May-18 21:30N 53°36' E 000°24'0 0.0
2015-May-18 20:18N 53°36' E 000°24'1 1.0
2015-May-18 19:33N 53°36' E 000°25'38 9.5
2015-May-18 15:32N 53°19' E 001°23'1212.0
2015-May-18 14:33N 53°12' E 001°38'1312.9
2015-May-18 13:33N 53°05' E 001°56'1313.2
2015-May-18 12:33N 52°56' E 002°13'8210.3
2015-May-18 04:32N 51°34' E 002°20'1313.0
2015-May-18 03:33N 51°23' E 002°10'1313.0
2015-May-18 02:33N 51°12' E 001°58'1414.2
2015-May-18 01:33N 51°03' E 001°40'  
Track history (hours):
 
Tides and Currents Weather Stations Pressure Air Temp Water Temp Dewpoint Dewpoint Depression Visibility Wind Speed Wind Dir Waves Ship Positions

Sloman Herakles

Last reported at 2015-May-24 04:33 UTC. Time now 2015-May-24 04:52 UTC.
Position N 55°16' E 012°46'.

Length 145 m; draft 6.7 m.

Type: Ship (hazmat cat C). MMSI: 305851000.

Date/timePositionNaut miles runAvg speedWind from/ knotsBaromVisibWave heightAir tempDewpointWater temp
2015-May-24 04:33N 55°16' E 012°46'1010.3
2015-May-24 03:33N 55°26' E 012°40'1010.3
2015-May-24 02:33N 55°34' E 012°49'8 8.4
2015-May-24 01:34N 55°42' E 012°53'1313.1
2015-May-24 00:34N 55°53' E 012°40'1110.5
2015-May-23 23:34N 56°04' E 012°37'1312.5
2015-May-23 22:33N 56°11' E 012°20'1312.5
2015-May-23 21:32N 56°20' E 012°02'1313.2
2015-May-23 20:33N 56°32' E 011°57'1313.0
2015-May-23 19:33N 56°45' E 011°52'1312.9
2015-May-23 18:33N 56°57' E 011°44'1312.8
2015-May-23 17:33N 57°09' E 011°36'1313.0
2015-May-23 16:33N 57°21' E 011°28'1212.3
2015-May-23 15:34N 57°32' E 011°16'1312.9
2015-May-23 14:33N 57°40' E 010°58'1212.3
2015-May-23 13:33N 57°48' E 010°39'1413.5
2015-May-23 12:33N 57°45' E 010°15'1313.3
2015-May-23 11:33N 57°40' E 009°51'25911.7
2015-May-22 13:29N 54°17' E 005°03'1212.6
2015-May-22 12:32N 54°06' E 004°56'1212.4
2015-May-22 11:33N 53°54' E 004°53'1412.7
2015-May-22 10:29N 53°40' E 004°52'1414.4
2015-May-22 09:32N 53°27' E 004°44'1414.7
2015-May-22 08:33N 53°14' E 004°34'1515.1
2015-May-22 07:33N 53°01' E 004°22'1515.3
2015-May-22 06:34N 52°47' E 004°10'1514.9
2015-May-22 05:33N 52°35' E 003°56'1615.4
2015-May-22 04:32N 52°20' E 003°51'1414.5
2015-May-22 03:33N 52°06' E 003°55'8 8.0
2015-May-22 02:33N 51°59' E 004°03'1111.3
2015-May-22 01:33N 51°53' E 004°19'0 0.3
2015-May-22 00:24N 51°53' E 004°18'0 0.0
2015-May-21 23:15N 51°53' E 004°18'0 0.0
2015-May-21 22:30N 51°53' E 004°18'0 0.0
2015-May-21 20:33N 51°53' E 004°18'0 0.0
2015-May-21 19:30N 51°53' E 004°18'0 0.0
2015-May-21 18:30N 51°53' E 004°18'0 0.0
2015-May-21 17:33N 51°53' E 004°18'0 0.0
2015-May-21 16:30N 51°53' E 004°18'0 0.0
2015-May-21 15:33N 51°53' E 004°18'0 0.0
2015-May-21 14:21N 51°53' E 004°18'0 0.0
2015-May-21 13:21N 51°53' E 004°18'0 0.0
2015-May-21 12:33N 51°53' E 004°18'0 0.0
2015-May-21 11:30N 51°53' E 004°18'0 0.0
2015-May-21 10:33N 51°53' E 004°18'0 0.0
2015-May-21 09:18N 51°53' E 004°18'0 0.0
2015-May-21 08:24N 51°53' E 004°18'0 0.0
2015-May-21 07:30N 51°53' E 004°18'0 0.0
2015-May-21 06:33N 51°53' E 004°18'0 0.0
2015-May-21 05:33N 51°53' E 004°18'5 5.3
2015-May-21 04:33N 51°56' E 004°12'1010.1
2015-May-21 03:33N 51°60' E 003°56'6 6.1
2015-May-21 02:33N 51°59' E 003°47'9 7.6
2015-May-21 01:23N 51°57' E 003°33'910.2
2015-May-21 00:31N 51°55' E 003°19'90 8.8
2015-May-20 14:17N 53°07' E 001°51'810.2
2015-May-20 13:33N 53°11' E 001°40'4410.0
2015-May-20 09:11N 53°34' E 000°38'712.0
2015-May-20 08:33N 53°32' E 000°25'1110.4
2015-May-20 07:33N 53°33' E 000°08'9 9.3
2015-May-20 06:33N 53°37' W 000°07'3 2.8
2015-May-20 05:28N 53°38' W 000°11'0 0.0
2015-May-20 04:31N 53°38' W 000°11'0 0.0
2015-May-20 03:25N 53°38' W 000°11'0 0.0
2015-May-20 02:28N 53°38' W 000°11'0 0.0
2015-May-20 01:31N 53°38' W 000°11'0 0.0
2015-May-20 00:31N 53°38' W 000°11'0 0.0
2015-May-19 23:31N 53°38' W 000°11'0 0.0
2015-May-19 22:28N 53°38' W 000°11'0 0.0
2015-May-19 21:31N 53°38' W 000°11'0 0.0
2015-May-19 20:31N 53°38' W 000°11'0 0.0
2015-May-19 19:28N 53°38' W 000°11'0 0.0
2015-May-19 18:31N 53°38' W 000°11'0 0.0
2015-May-19 17:31N 53°38' W 000°11'0 0.0
2015-May-19 16:25N 53°38' W 000°11'0 0.0
2015-May-19 15:31N 53°38' W 000°11'0 0.0
2015-May-19 14:31N 53°38' W 000°11'0 0.0
2015-May-19 13:31N 53°38' W 000°11'0 0.0
2015-May-19 12:31N 53°38' W 000°11'0 0.0
2015-May-19 11:31N 53°38' W 000°11'0 0.0
2015-May-19 10:31N 53°38' W 000°11'0 0.0
2015-May-19 09:28N 53°38' W 000°11'0 0.0
2015-May-19 08:31N 53°38' W 000°11'0 0.0
2015-May-19 07:31N 53°38' W 000°11'0 0.0
2015-May-19 06:33N 53°38' W 000°11'2 2.3
2015-May-19 05:33N 53°38' W 000°08'6 6.4
2015-May-19 04:33N 53°35' E 000°02'10 9.7
2015-May-19 03:33N 53°33' E 000°18'4 4.3
2015-May-19 02:33N 53°36' E 000°24'1 0.6
2015-May-19 01:27N 53°36' E 000°25'0 0.1
2015-May-19 00:33N 53°36' E 000°24'0 0.0
2015-May-18 23:18N 53°36' E 000°24'0 0.0
2015-May-18 22:33N 53°36' E 000°24'0 0.0
2015-May-18 21:30N 53°36' E 000°24'0 0.0
2015-May-18 20:18N 53°36' E 000°24'1 1.0
2015-May-18 19:33N 53°36' E 000°25'38 9.5
2015-May-18 15:32N 53°19' E 001°23'1212.0
2015-May-18 14:33N 53°12' E 001°38'1312.9
2015-May-18 13:33N 53°05' E 001°56'1313.2
2015-May-18 12:33N 52°56' E 002°13'8210.3
2015-May-18 04:32N 51°34' E 002°20'1313.0
2015-May-18 03:33N 51°23' E 002°10'1313.0
2015-May-18 02:33N 51°12' E 001°58'1414.2
2015-May-18 01:33N 51°03' E 001°40'  

Dump ship's entire track history